createdAt,value
2023-03-15T00:04:05.910Z,77.38
2023-03-15T00:09:07.843Z,76.79
2023-03-15T00:14:10.583Z,76.92
2023-03-15T00:19:12.733Z,77.15
2023-03-15T00:24:14.383Z,78.56
2023-03-15T00:29:16.061Z,78.42
2023-03-15T00:34:19.029Z,78.08
2023-03-15T00:39:21.156Z,78.20
2023-03-15T00:44:26.599Z,77.29
2023-03-15T00:49:28.296Z,77.57
2023-03-15T00:54:30.020Z,77.77
2023-03-15T00:59:36.117Z,78.54
2023-03-15T01:04:37.942Z,77.72
2023-03-15T01:09:39.608Z,77.09
2023-03-15T01:14:41.310Z,77.50
2023-03-15T01:19:43.054Z,79.96
2023-03-15T01:24:44.731Z,78.16
2023-03-15T01:29:46.634Z,78.88
2023-03-15T01:34:49.603Z,77.83
2023-03-15T01:39:51.629Z,79.02
2023-03-15T01:45:00.099Z,80.11
2023-03-15T01:50:07.415Z,80.42
2023-03-15T01:55:12.865Z,81.45
2023-03-15T02:00:22.764Z,82.85
2023-03-15T02:05:32.861Z,80.92
2023-03-15T02:10:46.900Z,81.54
2023-03-15T02:15:50.260Z,82.37
2023-03-15T02:21:08.221Z,82.43
2023-03-15T02:26:42.991Z,82.48
2023-03-15T02:31:44.945Z,82.70
2023-03-15T02:36:46.576Z,83.36
2023-03-15T02:41:54.935Z,82.94
2023-03-15T02:47:19.587Z,83.82
2023-03-15T02:52:22.739Z,84.40
2023-03-15T02:57:24.463Z,84.00
2023-03-15T03:02:28.919Z,84.69
2023-03-15T03:07:30.974Z,85.62
2023-03-15T03:12:37.922Z,87.49
2023-03-15T03:17:39.775Z,88.79
2023-03-15T03:22:44.865Z,90.24
2023-03-15T03:27:46.733Z,89.62
2023-03-15T03:32:48.908Z,87.60
2023-03-15T03:37:53.650Z,87.26
2023-03-15T03:43:00.866Z,88.52
2023-03-15T03:48:02.704Z,86.44
2023-03-15T03:53:07.156Z,85.55
2023-03-15T03:58:10.402Z,85.60
2023-03-15T04:03:29.111Z,85.09
2023-03-15T04:08:39.463Z,84.83
2023-03-15T04:13:44.408Z,82.16
2023-03-15T04:18:46.649Z,81.57
2023-03-15T04:23:48.432Z,81.70
2023-03-15T04:29:12.160Z,81.47
2023-03-15T04:34:31.518Z,80.79
2023-03-15T04:39:52.610Z,79.73
2023-03-15T04:45:20.386Z,80.65
2023-03-15T04:50:36.404Z,80.85
2023-03-15T04:55:58.271Z,81.52
2023-03-15T05:01:18.417Z,81.32
2023-03-15T05:06:49.538Z,81.26
2023-03-15T05:12:18.074Z,81.40
2023-03-15T05:17:20.036Z,82.15
2023-03-15T05:22:40.864Z,82.15
2023-03-15T05:27:55.666Z,81.65
2023-03-15T05:33:36.096Z,80.64
2023-03-15T05:39:04.735Z,81.69
2023-03-15T05:44:24.440Z,81.78
2023-03-15T05:49:46.814Z,81.22
2023-03-15T05:54:58.576Z,81.08
2023-03-15T06:00:19.485Z,81.18
2023-03-15T06:05:26.097Z,79.49
2023-03-15T06:10:30.293Z,79.80
2023-03-15T06:15:35.153Z,75.43
2023-03-15T06:20:38.009Z,70.39
2023-03-15T06:25:45.434Z,68.52
2023-03-15T06:30:47.902Z,68.54
2023-03-15T06:35:50.560Z,70.41
2023-03-15T06:40:52.169Z,72.55
2023-03-15T06:45:55.855Z,70.95
2023-03-15T06:50:57.570Z,69.67
2023-03-15T06:55:59.198Z,69.00
2023-03-15T07:01:00.897Z,68.55
2023-03-15T07:06:03.104Z,67.95
2023-03-15T07:11:06.353Z,68.23
2023-03-15T07:16:08.091Z,66.74
2023-03-15T07:21:10.028Z,65.55
2023-03-15T07:26:11.736Z,65.52
2023-03-15T07:31:13.813Z,64.83
2023-03-15T07:36:15.416Z,64.18
2023-03-15T07:41:17.583Z,65.99
2023-03-15T07:46:39.550Z,65.05
2023-03-15T07:51:42.361Z,65.58
2023-03-15T07:56:44.317Z,65.34
2023-03-15T08:01:45.972Z,63.61
2023-03-15T08:06:47.641Z,61.87
2023-03-15T08:11:49.248Z,61.68
2023-03-15T08:16:51.303Z,59.95
2023-03-15T08:21:54.030Z,61.45
2023-03-15T08:26:55.650Z,59.62
2023-03-15T08:31:57.756Z,59.79
2023-03-15T08:36:59.472Z,57.60
2023-03-15T08:42:01.346Z,60.42
2023-03-15T08:47:03.209Z,68.41
2023-03-15T08:52:05.195Z,79.21
2023-03-15T08:57:06.860Z,87.09
2023-03-15T09:02:11.424Z,92.15
2023-03-15T09:07:13.083Z,92.13
2023-03-15T09:12:16.564Z,95.03
2023-03-15T09:17:18.180Z,95.18
2023-03-15T09:22:38.158Z,91.37
2023-03-15T09:27:40.920Z,93.08
2023-03-15T09:32:44.119Z,88.64
2023-03-15T09:37:46.740Z,81.39
2023-03-15T09:42:54.468Z,76.99
2023-03-15T09:48:13.483Z,78.56
2023-03-15T09:53:47.487Z,78.18
2023-03-15T09:58:51.594Z,76.93
2023-03-15T10:03:54.203Z,75.12
2023-03-15T10:09:04.723Z,74.78
2023-03-15T10:14:24.522Z,75.28
2023-03-15T10:19:47.208Z,76.23
2023-03-15T10:24:50.949Z,75.93
2023-03-15T10:29:55.823Z,77.96
2023-03-15T10:34:58.852Z,76.79
2023-03-15T10:40:01.054Z,75.37
2023-03-15T10:45:33.931Z,75.26
2023-03-15T10:50:39.138Z,74.62
2023-03-15T10:55:45.399Z,73.51
2023-03-15T11:01:08.617Z,72.75
2023-03-15T11:06:26.018Z,70.83
2023-03-15T11:11:27.685Z,67.38
2023-03-15T11:16:35.394Z,68.39
2023-03-15T11:21:38.443Z,68.72
2023-03-15T11:26:41.317Z,71.02
2023-03-15T11:31:43.072Z,71.17
2023-03-15T11:36:58.707Z,70.91
2023-03-15T11:42:14.689Z,69.27
2023-03-15T11:47:36.458Z,66.18
2023-03-15T11:52:39.533Z,68.19
2023-03-15T11:57:47.096Z,69.93
2023-03-15T12:02:50.268Z,69.33
2023-03-15T12:08:15.520Z,67.40
2023-03-15T12:13:26.299Z,66.81
2023-03-15T12:18:48.472Z,64.18
2023-03-15T12:24:04.008Z,68.58
2023-03-15T12:29:30.214Z,70.37
2023-03-15T12:34:39.893Z,66.54
2023-03-15T12:39:51.919Z,65.76
2023-03-15T12:44:53.681Z,65.01
2023-03-15T12:49:55.361Z,65.67
2023-03-15T12:55:11.985Z,67.26
2023-03-15T13:00:27.482Z,65.53
2023-03-15T13:06:02.787Z,65.43
2023-03-15T13:11:17.460Z,64.11
2023-03-15T13:16:35.724Z,61.84
2023-03-15T13:22:06.600Z,62.61
2023-03-15T13:27:58.790Z,64.84
2023-03-15T13:33:31.594Z,64.02
2023-03-15T13:38:43.395Z,63.96
2023-03-15T13:43:46.174Z,62.45
2023-03-15T13:48:47.851Z,63.28
2023-03-15T13:53:53.167Z,61.35
2023-03-15T13:58:56.802Z,62.85
2023-03-15T14:04:05.852Z,63.89
2023-03-15T14:09:19.391Z,66.04
2023-03-15T14:14:25.362Z,62.89
2023-03-15T14:19:34.544Z,61.54
2023-03-15T14:24:40.165Z,63.44
2023-03-15T14:29:51.404Z,63.63
2023-03-15T14:35:06.787Z,61.82
2023-03-15T14:40:28.333Z,59.81
2023-03-15T14:45:34.646Z,59.60
2023-03-15T14:50:40.105Z,55.01
2023-03-15T14:55:42.104Z,57.38
2023-03-15T15:00:47.484Z,56.79
2023-03-15T15:05:49.820Z,55.49
2023-03-15T15:10:53.660Z,56.20
2023-03-15T15:15:56.959Z,56.55
2023-03-15T15:21:01.736Z,57.90
2023-03-15T15:26:05.913Z,58.98
2023-03-15T15:31:08.019Z,58.40
2023-03-15T15:36:21.599Z,55.44
2023-03-15T15:41:25.458Z,54.48
2023-03-15T15:46:27.486Z,54.71
2023-03-15T15:51:51.425Z,55.04
2023-03-15T15:56:56.405Z,55.44
2023-03-15T16:02:01.781Z,57.21
2023-03-15T16:07:04.731Z,59.37
2023-03-15T16:12:14.678Z,60.54
2023-03-15T16:17:22.945Z,60.57
2023-03-15T16:22:26.727Z,61.93
2023-03-15T16:27:28.768Z,62.04
2023-03-15T16:32:43.376Z,62.45
2023-03-15T16:37:46.227Z,63.43
2023-03-15T16:42:49.428Z,63.36
2023-03-15T16:47:51.912Z,62.80
2023-03-15T16:52:57.066Z,63.39
2023-03-15T16:58:03.490Z,64.21
2023-03-15T17:03:05.312Z,64.88
2023-03-15T17:08:11.589Z,66.06
2023-03-15T17:13:21.043Z,65.59
2023-03-15T17:18:24.010Z,65.34
2023-03-15T17:23:25.800Z,66.09
2023-03-15T17:28:29.120Z,65.55
2023-03-15T17:33:30.778Z,65.07
2023-03-15T17:38:33.335Z,66.21
2023-03-15T17:43:36.676Z,66.63
2023-03-15T17:48:38.836Z,66.64
2023-03-15T17:53:40.538Z,68.33
2023-03-15T17:58:42.640Z,68.73
2023-03-15T18:03:46.044Z,70.05
2023-03-15T18:08:48.666Z,71.60
2023-03-15T18:13:50.757Z,72.43
2023-03-15T18:18:52.568Z,71.82
2023-03-15T18:23:54.715Z,72.60
2023-03-15T18:28:56.396Z,71.56
2023-03-15T18:33:58.060Z,71.96
2023-03-15T18:38:59.772Z,73.49
2023-03-15T18:44:01.526Z,74.01
2023-03-15T18:49:03.281Z,74.42
2023-03-15T18:54:05.880Z,75.58
2023-03-15T18:59:07.545Z,75.61
2023-03-15T19:04:09.221Z,76.40
2023-03-15T19:09:11.010Z,77.35
2023-03-15T19:14:12.721Z,78.66
2023-03-15T19:19:14.361Z,79.99
2023-03-15T19:24:16.034Z,81.48
2023-03-15T19:29:17.681Z,82.27
2023-03-15T19:34:19.387Z,82.52
2023-03-15T19:39:21.032Z,83.47
2023-03-15T19:44:22.974Z,83.16
2023-03-15T19:49:24.681Z,82.35
2023-03-15T19:54:26.385Z,81.32
2023-03-15T19:59:28.085Z,81.11
2023-03-15T20:04:29.753Z,80.55
2023-03-15T20:09:37.934Z,79.86
2023-03-15T20:14:39.657Z,79.31
2023-03-15T20:19:41.570Z,77.34
2023-03-15T20:24:44.267Z,76.74
2023-03-15T20:29:46.004Z,77.79
2023-03-15T20:34:47.779Z,77.83
2023-03-15T20:39:49.639Z,78.61
2023-03-15T20:44:52.761Z,79.52
2023-03-15T20:49:54.372Z,78.84
2023-03-15T20:54:56.122Z,78.74
2023-03-15T20:59:57.837Z,79.57
2023-03-15T21:04:59.592Z,79.78
2023-03-15T21:10:01.264Z,80.45
2023-03-15T21:15:03.064Z,81.17
2023-03-15T21:20:07.287Z,81.06
2023-03-15T21:25:09.885Z,82.37
2023-03-15T21:30:13.948Z,83.06
2023-03-15T21:35:26.527Z,84.62
2023-03-15T21:40:28.182Z,85.49
2023-03-15T21:45:31.243Z,84.42
2023-03-15T21:50:36.555Z,84.52
2023-03-15T21:55:38.488Z,85.61
2023-03-15T22:00:40.420Z,87.11
2023-03-15T22:05:42.124Z,88.19
2023-03-15T22:10:44.068Z,89.88
2023-03-15T22:15:45.695Z,90.85
2023-03-15T22:20:51.092Z,90.37
2023-03-15T22:25:53.670Z,91.51
2023-03-15T22:30:55.465Z,91.99
2023-03-15T22:35:58.671Z,91.13
2023-03-15T22:41:09.087Z,91.68
2023-03-15T22:46:11.619Z,92.17
2023-03-15T22:51:16.806Z,93.82
2023-03-15T22:56:19.209Z,92.61
2023-03-15T23:01:21.343Z,92.21
2023-03-15T23:06:23.306Z,92.49
2023-03-15T23:11:25.401Z,91.75
2023-03-15T23:16:27.311Z,91.52
2023-03-15T23:21:29.125Z,90.67
2023-03-15T23:26:37.161Z,89.98
2023-03-15T23:31:40.989Z,90.20
2023-03-15T23:36:44.846Z,91.78
2023-03-15T23:41:49.762Z,91.71
2023-03-15T23:46:53.563Z,91.29
2023-03-15T23:51:55.563Z,90.96
2023-03-15T23:56:57.236Z,91.63
